createdAt,value
2018-12-13T00:00:37.355Z,93.60
2018-12-13T00:03:05.983Z,93.50
2018-12-13T00:05:34.397Z,93.10
2018-12-13T00:08:02.869Z,92.90
2018-12-13T00:10:31.288Z,92.70
2018-12-13T00:12:59.688Z,92.70
2018-12-13T00:15:31.795Z,92.60
2018-12-13T00:18:00.306Z,92.50
2018-12-13T00:20:28.878Z,92.40
2018-12-13T00:22:57.307Z,92.30
2018-12-13T00:25:25.759Z,92.10
2018-12-13T00:27:54.215Z,92.00
2018-12-13T00:30:22.758Z,92.30
2018-12-13T00:32:51.188Z,92.60
2018-12-13T00:35:20.235Z,92.70
2018-12-13T00:37:49.524Z,92.80
2018-12-13T00:40:18.092Z,93.30
2018-12-13T00:42:46.528Z,93.30
2018-12-13T00:45:14.951Z,93.30
2018-12-13T00:47:43.356Z,92.90
2018-12-13T00:50:11.811Z,92.60
2018-12-13T00:52:40.281Z,92.40
2018-12-13T00:55:08.748Z,92.30
2018-12-13T00:57:37.210Z,91.90
2018-12-13T01:00:06.466Z,91.40
2018-12-13T01:02:34.895Z,91.60
2018-12-13T01:05:03.438Z,91.00
2018-12-13T01:07:31.842Z,90.90
2018-12-13T01:10:00.266Z,90.90
2018-12-13T01:12:28.718Z,90.90
2018-12-13T01:14:57.125Z,91.20
2018-12-13T01:17:25.579Z,91.40
2018-12-13T01:19:54.012Z,91.90
2018-12-13T01:22:22.460Z,91.80
2018-12-13T01:24:50.892Z,91.80
2018-12-13T01:27:19.340Z,91.80
2018-12-13T01:29:47.795Z,91.60
2018-12-13T01:32:16.238Z,91.60
2018-12-13T01:34:45.462Z,91.30
2018-12-13T01:37:13.887Z,91.20
2018-12-13T01:39:42.465Z,91.30
2018-12-13T01:42:11.347Z,91.40
2018-12-13T01:44:39.787Z,91.60
2018-12-13T01:47:08.166Z,92.00
2018-12-13T01:49:36.582Z,92.30
2018-12-13T01:52:05.042Z,92.50
2018-12-13T01:54:33.514Z,92.60
2018-12-13T01:57:01.914Z,93.00
2018-12-13T01:59:30.332Z,93.00
2018-12-13T02:01:58.728Z,93.40
2018-12-13T02:04:27.177Z,93.50
2018-12-13T02:06:58.706Z,93.60
2018-12-13T02:09:26.229Z,93.80
2018-12-13T02:11:54.609Z,94.00
2018-12-13T02:14:23.067Z,94.40
2018-12-13T02:16:51.469Z,94.20
2018-12-13T02:19:19.885Z,94.50
2018-12-13T02:21:48.552Z,94.60
2018-12-13T02:24:17.114Z,94.60
2018-12-13T02:26:45.522Z,94.70
2018-12-13T02:29:13.944Z,94.80
2018-12-13T02:31:42.357Z,94.80
2018-12-13T02:34:10.759Z,94.90
2018-12-13T02:36:39.204Z,94.90
2018-12-13T02:39:07.766Z,95.10
2018-12-13T02:41:36.226Z,95.20
2018-12-13T02:44:04.670Z,95.30
2018-12-13T02:46:33.246Z,95.40
2018-12-13T02:49:09.129Z,96.00
2018-12-13T02:51:37.702Z,95.80
2018-12-13T02:54:06.183Z,96.00
2018-12-13T02:56:34.634Z,96.10
2018-12-13T02:59:03.264Z,96.40
2018-12-13T03:01:31.698Z,96.20
2018-12-13T03:04:00.170Z,96.10
2018-12-13T03:06:28.651Z,96.20
2018-12-13T03:08:57.073Z,96.30
2018-12-13T03:11:25.483Z,96.30
2018-12-13T03:13:54.146Z,96.30
2018-12-13T03:16:22.711Z,96.30
2018-12-13T03:18:51.163Z,96.30
2018-12-13T03:21:19.587Z,96.40
2018-12-13T03:23:48.028Z,96.40
2018-12-13T03:26:16.447Z,96.40
2018-12-13T03:28:44.927Z,96.50
2018-12-13T03:31:13.335Z,96.50
2018-12-13T03:33:41.852Z,96.60
2018-12-13T03:36:10.321Z,96.60
2018-12-13T03:38:38.708Z,96.70
2018-12-13T03:41:07.142Z,96.70
2018-12-13T03:43:35.624Z,96.90
2018-12-13T03:46:04.099Z,96.90
2018-12-13T03:48:32.576Z,96.90
2018-12-13T03:51:01.004Z,96.90
2018-12-13T03:53:29.414Z,97.00
2018-12-13T03:55:57.826Z,97.20
2018-12-13T03:58:26.260Z,97.70
2018-12-13T04:00:54.702Z,97.40
2018-12-13T04:03:23.103Z,97.50
2018-12-13T04:05:51.675Z,97.50
2018-12-13T04:08:20.101Z,97.50
2018-12-13T04:10:48.519Z,97.50
2018-12-13T04:13:16.923Z,97.60
2018-12-13T04:15:45.346Z,97.60
2018-12-13T04:18:13.788Z,97.60
2018-12-13T04:20:42.253Z,97.50
2018-12-13T04:23:10.686Z,97.40
2018-12-13T04:25:39.110Z,97.40
2018-12-13T04:28:07.577Z,97.30
2018-12-13T04:30:36.015Z,97.10
2018-12-13T04:33:04.497Z,96.90
2018-12-13T04:35:32.906Z,97.00
2018-12-13T04:38:01.354Z,97.00
2018-12-13T04:40:29.983Z,97.00
2018-12-13T04:42:58.454Z,97.10
2018-12-13T04:45:26.978Z,97.10
2018-12-13T04:47:55.409Z,97.00
2018-12-13T04:50:23.884Z,96.80
2018-12-13T04:52:52.299Z,96.60
2018-12-13T04:55:20.740Z,96.50
2018-12-13T04:57:49.141Z,96.30
2018-12-13T05:00:17.570Z,96.40
2018-12-13T05:02:45.990Z,96.50
2018-12-13T05:05:14.412Z,96.50
2018-12-13T05:07:42.988Z,96.20
2018-12-13T05:10:21.412Z,96.10
2018-12-13T05:12:49.834Z,95.90
2018-12-13T05:15:18.356Z,95.90
2018-12-13T05:17:46.770Z,96.00
2018-12-13T05:20:15.190Z,95.90
2018-12-13T05:22:43.632Z,96.30
2018-12-13T05:25:12.031Z,96.00
2018-12-13T05:27:40.478Z,96.10
2018-12-13T05:30:09.045Z,96.20
2018-12-13T05:32:37.551Z,96.40
2018-12-13T05:35:06.327Z,96.40
2018-12-13T05:37:35.107Z,96.50
2018-12-13T05:40:03.682Z,96.40
2018-12-13T05:42:32.194Z,96.50
2018-12-13T05:45:00.642Z,96.40
2018-12-13T05:47:29.095Z,96.30
2018-12-13T05:49:57.668Z,96.20
2018-12-13T05:52:26.242Z,96.20
2018-12-13T05:54:54.670Z,95.70
2018-12-13T05:57:23.146Z,95.60
2018-12-13T05:59:51.560Z,95.40
2018-12-13T06:02:19.988Z,95.00
2018-12-13T06:04:48.468Z,94.90
2018-12-13T06:07:16.886Z,94.80
2018-12-13T06:09:45.348Z,94.80
2018-12-13T06:12:13.777Z,95.00
2018-12-13T06:14:42.245Z,94.90
2018-12-13T06:17:10.675Z,94.40
2018-12-13T06:19:39.126Z,94.00
2018-12-13T06:22:07.666Z,94.20
2018-12-13T06:24:36.153Z,94.10
2018-12-13T06:27:04.592Z,93.90
2018-12-13T06:29:33.024Z,94.00
2018-12-13T06:32:01.410Z,94.00
2018-12-13T06:34:30.050Z,94.40
2018-12-13T06:36:58.462Z,94.30
2018-12-13T06:39:27.002Z,94.10
2018-12-13T06:41:55.405Z,94.00
2018-12-13T06:44:24.631Z,93.70
2018-12-13T06:46:53.754Z,93.80
2018-12-13T06:49:22.241Z,93.60
2018-12-13T06:51:50.707Z,93.50
2018-12-13T06:54:19.094Z,93.70
2018-12-13T06:56:47.534Z,93.40
2018-12-13T06:59:15.927Z,93.30
2018-12-13T07:01:44.343Z,93.80
2018-12-13T07:04:12.766Z,93.60
2018-12-13T07:06:41.286Z,93.50
2018-12-13T07:09:09.701Z,94.10
2018-12-13T07:11:38.149Z,93.90
2018-12-13T07:14:06.557Z,93.90
2018-12-13T07:16:35.022Z,94.00
2018-12-13T07:19:03.461Z,94.10
2018-12-13T07:21:31.910Z,94.00
2018-12-13T07:24:00.318Z,94.20
2018-12-13T07:26:28.820Z,94.10
2018-12-13T07:28:57.231Z,94.20
2018-12-13T07:31:25.665Z,94.40
2018-12-13T07:33:54.290Z,94.40
2018-12-13T07:36:22.727Z,94.40
2018-12-13T07:38:51.288Z,94.30
2018-12-13T07:41:19.748Z,94.20
2018-12-13T07:43:48.149Z,94.00
2018-12-13T07:46:16.610Z,93.70
2018-12-13T07:48:45.035Z,93.70
2018-12-13T07:51:13.482Z,93.60
2018-12-13T07:53:41.923Z,93.70
2018-12-13T07:56:10.360Z,93.80
2018-12-13T07:58:38.780Z,93.70
2018-12-13T08:01:07.195Z,94.00
2018-12-13T08:03:35.582Z,93.50
2018-12-13T08:06:03.991Z,93.50
2018-12-13T08:08:32.402Z,93.50
2018-12-13T08:11:00.836Z,93.20
2018-12-13T08:13:29.281Z,92.50
2018-12-13T08:15:57.687Z,92.50
2018-12-13T08:18:26.115Z,92.10
2018-12-13T08:20:54.609Z,91.70
2018-12-13T08:23:23.018Z,91.60
2018-12-13T08:25:51.434Z,91.50
2018-12-13T08:28:19.941Z,90.90
2018-12-13T08:30:48.360Z,90.80
2018-12-13T08:33:16.778Z,90.80
2018-12-13T08:35:45.205Z,90.70
2018-12-13T08:38:13.622Z,90.40
2018-12-13T08:40:42.085Z,90.20
2018-12-13T08:43:10.578Z,90.00
2018-12-13T08:45:38.991Z,89.30
2018-12-13T08:48:07.450Z,88.70
2018-12-13T08:50:35.855Z,88.10
2018-12-13T08:53:04.336Z,88.20
2018-12-13T08:55:32.748Z,87.10
2018-12-13T08:58:01.157Z,87.00
2018-12-13T09:00:29.644Z,86.70
2018-12-13T09:02:58.057Z,86.40
2018-12-13T09:05:26.463Z,86.40
2018-12-13T09:07:54.878Z,85.80
2018-12-13T09:10:23.377Z,85.20
2018-12-13T09:12:51.929Z,85.80
2018-12-13T09:15:20.328Z,84.30
2018-12-13T09:17:48.750Z,84.20
2018-12-13T09:20:17.177Z,84.70
2018-12-13T09:22:45.658Z,83.70
2018-12-13T09:25:14.111Z,83.00
2018-12-13T09:27:42.575Z,82.80
2018-12-13T09:30:11.110Z,82.50
2018-12-13T09:32:39.545Z,82.80
2018-12-13T09:35:07.947Z,82.80
2018-12-13T09:37:36.382Z,82.70
2018-12-13T09:40:05.420Z,83.20
2018-12-13T09:42:33.897Z,82.40
2018-12-13T09:45:02.449Z,81.10
2018-12-13T09:47:30.859Z,81.50
2018-12-13T09:49:59.286Z,81.70
2018-12-13T09:52:27.716Z,81.50
2018-12-13T09:54:56.194Z,80.50
2018-12-13T09:57:24.645Z,80.50
2018-12-13T09:59:53.056Z,79.10
2018-12-13T10:02:21.470Z,78.90
2018-12-13T10:04:50.014Z,80.60
2018-12-13T10:07:18.423Z,78.60
2018-12-13T10:09:46.858Z,78.80
2018-12-13T10:12:15.341Z,77.90
2018-12-13T10:14:43.778Z,77.20
2018-12-13T10:17:12.225Z,77.30
2018-12-13T10:19:40.748Z,76.00
2018-12-13T10:22:11.834Z,76.10
2018-12-13T10:24:39.559Z,75.70
2018-12-13T10:27:08.026Z,75.40
2018-12-13T10:29:36.454Z,75.90
2018-12-13T10:32:04.901Z,76.30
2018-12-13T10:34:33.291Z,76.30
2018-12-13T10:37:01.750Z,75.30
2018-12-13T10:39:30.163Z,75.00
2018-12-13T10:41:58.602Z,75.20
2018-12-13T10:44:32.461Z,74.20
2018-12-13T10:47:00.880Z,74.00
2018-12-13T10:49:29.306Z,72.90
2018-12-13T10:51:57.726Z,73.00
2018-12-13T10:54:26.122Z,72.80
2018-12-13T10:56:54.582Z,72.30
2018-12-13T10:59:23.094Z,73.00
2018-12-13T11:01:56.871Z,72.90
2018-12-13T11:04:25.269Z,72.70
2018-12-13T11:06:53.678Z,73.10
2018-12-13T11:09:22.144Z,73.10
2018-12-13T11:11:50.611Z,72.70
2018-12-13T11:14:19.032Z,72.70
2018-12-13T11:16:47.499Z,71.80
2018-12-13T11:19:15.923Z,71.70
2018-12-13T11:21:44.378Z,71.40
2018-12-13T11:24:12.801Z,70.80
2018-12-13T11:26:41.239Z,70.40
2018-12-13T11:29:19.670Z,70.00
2018-12-13T11:31:48.150Z,70.90
2018-12-13T11:34:16.578Z,68.50
2018-12-13T11:36:44.982Z,69.80
2018-12-13T11:39:13.401Z,69.90
2018-12-13T11:41:41.814Z,69.80
2018-12-13T11:44:10.230Z,70.00
2018-12-13T11:46:38.655Z,70.10
2018-12-13T11:49:12.110Z,69.60
2018-12-13T11:51:37.507Z,70.00
2018-12-13T11:54:13.788Z,68.90
2018-12-13T11:56:42.409Z,69.80
2018-12-13T11:59:10.836Z,69.60
2018-12-13T12:01:39.255Z,69.20
2018-12-13T12:04:07.650Z,68.70
2018-12-13T12:06:36.059Z,68.70
2018-12-13T12:09:12.037Z,68.10
2018-12-13T12:11:36.265Z,68.20
2018-12-13T12:14:04.726Z,66.90
2018-12-13T12:16:33.127Z,66.10
2018-12-13T12:19:01.539Z,66.40
2018-12-13T12:21:29.974Z,65.90
2018-12-13T12:23:58.378Z,65.00
2018-12-13T12:26:26.838Z,65.20
2018-12-13T12:28:55.231Z,64.00
2018-12-13T12:31:23.683Z,64.30
2018-12-13T12:33:52.117Z,64.10
2018-12-13T12:36:20.508Z,63.30
2018-12-13T12:38:49.041Z,64.90
2018-12-13T12:41:17.554Z,64.00
2018-12-13T12:43:46.069Z,63.50
2018-12-13T12:46:14.502Z,62.90
2018-12-13T12:48:42.984Z,63.90
2018-12-13T12:51:11.413Z,62.80
2018-12-13T12:53:39.843Z,64.20
2018-12-13T12:56:10.181Z,63.40
2018-12-13T12:58:38.615Z,61.60
2018-12-13T13:01:07.046Z,62.10
2018-12-13T13:03:35.475Z,61.90
2018-12-13T13:06:04.057Z,62.20
2018-12-13T13:08:32.612Z,61.70
2018-12-13T13:11:01.015Z,61.50
2018-12-13T13:13:30.517Z,61.70
2018-12-13T13:15:59.300Z,62.50
2018-12-13T13:18:27.727Z,62.90
2018-12-13T13:20:56.165Z,62.10
2018-12-13T13:23:24.577Z,61.70
2018-12-13T13:25:53.097Z,61.90
2018-12-13T13:28:21.727Z,61.90
2018-12-13T13:30:50.186Z,62.70
2018-12-13T13:33:18.597Z,61.10
2018-12-13T13:35:47.039Z,59.50
2018-12-13T13:38:15.438Z,59.00
2018-12-13T13:40:43.871Z,58.50
2018-12-13T13:43:12.327Z,59.20
2018-12-13T13:45:40.799Z,59.50
2018-12-13T13:48:09.202Z,59.30
2018-12-13T13:50:37.648Z,59.60
2018-12-13T13:53:06.130Z,59.50
2018-12-13T13:55:34.547Z,59.10
2018-12-13T13:58:03.000Z,59.70
2018-12-13T14:00:31.403Z,59.20
2018-12-13T14:02:59.845Z,59.30
2018-12-13T14:05:28.268Z,59.10
2018-12-13T14:07:56.677Z,59.40
2018-12-13T14:10:25.112Z,59.40
2018-12-13T14:12:53.547Z,60.10
2018-12-13T14:15:21.985Z,61.20
2018-12-13T14:17:50.432Z,61.20
2018-12-13T14:20:18.844Z,60.60
2018-12-13T14:22:47.514Z,61.20
2018-12-13T14:25:15.938Z,62.20
2018-12-13T14:27:44.389Z,62.10
2018-12-13T14:30:12.966Z,62.20
2018-12-13T14:32:41.399Z,61.90
2018-12-13T14:35:13.028Z,61.50
2018-12-13T14:37:41.411Z,62.20
2018-12-13T14:40:09.834Z,62.50
2018-12-13T14:42:38.265Z,62.90
2018-12-13T14:45:06.823Z,64.00
2018-12-13T14:47:35.262Z,64.90
2018-12-13T14:50:04.211Z,64.90
2018-12-13T14:52:32.634Z,64.60
2018-12-13T14:55:01.062Z,65.20
2018-12-13T14:57:29.508Z,65.80
2018-12-13T14:59:57.926Z,66.00
2018-12-13T15:02:26.339Z,67.40
2018-12-13T15:04:55.287Z,67.60
2018-12-13T15:07:23.772Z,67.50
2018-12-13T15:09:52.328Z,68.20
2018-12-13T15:12:20.775Z,68.90
2018-12-13T15:14:49.181Z,68.50
2018-12-13T15:17:17.608Z,68.90
2018-12-13T15:19:46.016Z,68.10
2018-12-13T15:22:14.476Z,68.10
2018-12-13T15:24:42.894Z,68.50
2018-12-13T15:27:11.397Z,69.70
2018-12-13T15:29:39.823Z,69.80
2018-12-13T15:32:08.353Z,69.30
2018-12-13T15:34:36.785Z,70.50
2018-12-13T15:37:05.232Z,71.10
2018-12-13T15:39:33.650Z,72.00
2018-12-13T15:42:02.110Z,76.50
2018-12-13T15:44:30.538Z,72.80
2018-12-13T15:46:58.947Z,71.90
2018-12-13T15:49:28.567Z,75.70
2018-12-13T15:51:57.006Z,74.10
2018-12-13T15:54:25.406Z,72.50
2018-12-13T15:56:53.869Z,72.60
2018-12-13T15:59:22.279Z,72.50
2018-12-13T16:01:50.671Z,73.20
2018-12-13T16:04:19.133Z,73.30
2018-12-13T16:06:47.530Z,73.20
2018-12-13T16:09:16.006Z,73.40
2018-12-13T16:11:44.413Z,74.80
2018-12-13T16:14:12.846Z,74.50
2018-12-13T16:16:41.347Z,74.40
2018-12-13T16:19:09.798Z,73.90
2018-12-13T16:21:38.211Z,73.40
2018-12-13T16:24:06.667Z,73.40
2018-12-13T16:26:35.109Z,74.30
2018-12-13T16:29:03.557Z,73.90
2018-12-13T16:31:31.979Z,74.30
2018-12-13T16:34:00.490Z,74.70
2018-12-13T16:36:29.024Z,75.90
2018-12-13T16:38:57.399Z,75.80
2018-12-13T16:41:25.829Z,76.30
2018-12-13T16:43:54.313Z,76.70
2018-12-13T16:46:22.747Z,76.80
2018-12-13T16:48:51.169Z,76.90
2018-12-13T16:51:19.589Z,77.10
2018-12-13T16:53:48.009Z,77.70
2018-12-13T16:56:16.424Z,78.30
2018-12-13T16:58:44.862Z,78.00
2018-12-13T17:01:13.271Z,77.90
2018-12-13T17:03:42.328Z,77.20
2018-12-13T17:06:10.898Z,76.90
2018-12-13T17:08:39.468Z,76.60
2018-12-13T17:11:07.938Z,76.00
2018-12-13T17:13:36.449Z,76.00
2018-12-13T17:16:04.879Z,75.70
2018-12-13T17:18:33.353Z,75.30
2018-12-13T17:21:01.750Z,75.60
2018-12-13T17:23:30.234Z,75.80
2018-12-13T17:25:58.628Z,74.80
2018-12-13T17:28:27.056Z,74.70
2018-12-13T17:30:55.946Z,74.50
2018-12-13T17:33:24.365Z,74.40
2018-12-13T17:35:53.563Z,74.60
2018-12-13T17:38:22.684Z,74.40
2018-12-13T17:40:51.247Z,74.50
2018-12-13T17:43:19.713Z,74.40
2018-12-13T17:45:48.119Z,74.40
2018-12-13T17:48:16.550Z,74.40
2018-12-13T17:50:45.069Z,74.00
2018-12-13T17:53:13.506Z,74.50
2018-12-13T17:55:41.952Z,75.30
2018-12-13T17:58:10.797Z,75.50
2018-12-13T18:00:39.307Z,76.00
2018-12-13T18:03:07.761Z,76.40
2018-12-13T18:05:36.203Z,77.10
2018-12-13T18:08:04.681Z,77.60
2018-12-13T18:10:33.082Z,77.60
2018-12-13T18:13:01.609Z,78.30
2018-12-13T18:15:30.103Z,79.00
2018-12-13T18:17:58.522Z,79.30
2018-12-13T18:20:26.998Z,80.00
2018-12-13T18:22:55.447Z,80.70
2018-12-13T18:25:26.211Z,80.50
2018-12-13T18:27:54.865Z,80.80
2018-12-13T18:30:23.551Z,80.80
2018-12-13T18:32:52.077Z,81.00
2018-12-13T18:35:20.504Z,81.40
2018-12-13T18:37:49.269Z,81.50
2018-12-13T18:40:17.677Z,82.20
2018-12-13T18:42:46.115Z,82.40
2018-12-13T18:45:14.629Z,82.70
2018-12-13T18:47:43.079Z,82.90
2018-12-13T18:50:11.563Z,83.20
2018-12-13T18:52:39.996Z,84.20
2018-12-13T18:55:08.403Z,83.60
2018-12-13T18:57:36.862Z,83.30
2018-12-13T19:00:05.943Z,82.90
2018-12-13T19:02:34.429Z,83.30
2018-12-13T19:05:03.050Z,83.90
2018-12-13T19:07:31.567Z,84.00
2018-12-13T19:10:00.026Z,84.00
2018-12-13T19:12:28.529Z,83.70
2018-12-13T19:14:57.051Z,83.90
2018-12-13T19:17:25.469Z,82.50
2018-12-13T19:19:53.970Z,81.50
2018-12-13T19:22:22.423Z,81.10
2018-12-13T19:24:50.867Z,80.10
2018-12-13T19:27:19.631Z,80.00
2018-12-13T19:29:48.070Z,80.00
2018-12-13T19:32:16.528Z,79.40
2018-12-13T19:34:45.071Z,80.00
2018-12-13T19:37:13.490Z,80.00
2018-12-13T19:39:41.981Z,80.00
2018-12-13T19:42:10.399Z,80.80
2018-12-13T19:44:38.844Z,82.50
2018-12-13T19:47:07.268Z,82.70
2018-12-13T19:49:35.698Z,82.80
2018-12-13T19:52:04.130Z,82.90
2018-12-13T19:54:32.574Z,83.70
2018-12-13T19:57:01.310Z,84.50
2018-12-13T19:59:29.778Z,84.00
2018-12-13T20:01:58.266Z,83.80
2018-12-13T20:04:26.717Z,83.70
2018-12-13T20:06:55.137Z,83.20
2018-12-13T20:09:23.588Z,82.60
2018-12-13T20:11:52.006Z,82.20
2018-12-13T20:14:20.507Z,82.10
2018-12-13T20:16:49.012Z,82.10
2018-12-13T20:19:17.415Z,83.00
2018-12-13T20:21:45.829Z,82.30
2018-12-13T20:24:14.275Z,83.00
2018-12-13T20:26:42.704Z,83.90
2018-12-13T20:29:11.127Z,84.60
2018-12-13T20:31:39.535Z,84.70
2018-12-13T20:34:08.010Z,85.10
2018-12-13T20:36:36.491Z,85.70
2018-12-13T20:39:08.790Z,85.80
2018-12-13T20:41:38.218Z,85.50
2018-12-13T20:44:07.612Z,85.10
2018-12-13T20:46:36.094Z,85.20
2018-12-13T20:49:04.715Z,85.40
2018-12-13T20:51:33.118Z,84.70
2018-12-13T20:54:01.559Z,84.90
2018-12-13T20:56:29.989Z,84.70
2018-12-13T20:58:58.441Z,85.30
2018-12-13T21:01:27.250Z,84.90
2018-12-13T21:03:55.648Z,85.00
2018-12-13T21:06:24.123Z,85.20
2018-12-13T21:08:52.565Z,85.40
2018-12-13T21:11:21.004Z,84.20
2018-12-13T21:13:49.422Z,84.10
2018-12-13T21:16:17.865Z,84.70
2018-12-13T21:18:46.329Z,84.40
2018-12-13T21:21:15.684Z,85.30
2018-12-13T21:23:44.367Z,84.50
2018-12-13T21:26:12.860Z,84.60
2018-12-13T21:28:41.315Z,84.60
2018-12-13T21:31:09.730Z,84.80
2018-12-13T21:33:38.166Z,84.60
2018-12-13T21:36:06.626Z,84.00
2018-12-13T21:38:35.081Z,84.10
2018-12-13T21:41:03.520Z,84.00
2018-12-13T21:43:31.998Z,84.20
2018-12-13T21:46:00.436Z,84.10
2018-12-13T21:48:28.967Z,83.70
2018-12-13T21:50:57.774Z,83.90
2018-12-13T21:53:26.513Z,83.90
2018-12-13T21:56:31.018Z,84.00
2018-12-13T21:59:03.663Z,83.90
2018-12-13T22:01:30.024Z,83.90
2018-12-13T22:03:58.646Z,83.80
2018-12-13T22:06:27.271Z,83.60
2018-12-13T22:08:55.734Z,83.50
2018-12-13T22:11:24.181Z,83.20
2018-12-13T22:13:52.662Z,83.50
2018-12-13T22:16:21.093Z,84.30
2018-12-13T22:18:49.522Z,83.90
2018-12-13T22:21:17.998Z,84.00
2018-12-13T22:23:46.429Z,83.50
2018-12-13T22:26:14.952Z,83.70
2018-12-13T22:28:43.475Z,82.90
2018-12-13T22:31:11.898Z,83.20
2018-12-13T22:33:40.326Z,83.30
2018-12-13T22:36:08.903Z,82.40
2018-12-13T22:38:37.503Z,83.10
2018-12-13T22:41:05.983Z,81.90
2018-12-13T22:43:34.417Z,80.30
2018-12-13T22:46:05.020Z,79.10
2018-12-13T22:48:33.551Z,78.20
2018-12-13T22:51:02.024Z,78.00
2018-12-13T22:53:30.509Z,77.10
2018-12-13T22:55:59.052Z,76.30
2018-12-13T22:58:27.530Z,75.60
2018-12-13T23:00:56.117Z,75.40
2018-12-13T23:03:25.937Z,76.00
2018-12-13T23:05:54.421Z,75.10
2018-12-13T23:08:23.651Z,74.90
2018-12-13T23:10:52.370Z,74.80
2018-12-13T23:13:21.059Z,74.90
2018-12-13T23:15:49.637Z,74.90
2018-12-13T23:18:18.154Z,74.90
2018-12-13T23:20:46.637Z,75.10
2018-12-13T23:23:15.176Z,75.10
2018-12-13T23:25:43.999Z,74.90
2018-12-13T23:28:12.446Z,75.10
2018-12-13T23:30:42.133Z,75.40
2018-12-13T23:33:10.569Z,75.40
2018-12-13T23:35:39.008Z,75.90
2018-12-13T23:38:08.176Z,75.40
2018-12-13T23:40:36.617Z,75.40
2018-12-13T23:43:05.700Z,75.90
2018-12-13T23:45:34.893Z,75.90
2018-12-13T23:48:03.299Z,77.00
2018-12-13T23:50:31.801Z,76.10
2018-12-13T23:53:00.306Z,75.80
2018-12-13T23:55:28.738Z,75.80
2018-12-13T23:57:57.233Z,75.90
